Sunday, December 17, 2017, 10:14 PM EST
Back to Local

KHFD, Hartford-brainard Airport

Location: Hartford, CT, United States Lat: 41.733
Local Time: 10:14 PM EST ( 3:14 GMT) Lon: -72.65
Time Zone: US/Eastern Elev: 19 ft

Show me the last for .
Show Decoded

2017-12-17 21:53 METAR KHFD 180253Z 00000KT 10SM SCT085 M03/M09 A3026 RMK AO2 SLP247 T10281094
                 58005 =
2017-12-17 20:53 METAR KHFD 180153Z 00000KT 10SM CLR M02/M13 A3028 RMK AO2 SLP253 T10171128 =
2017-12-17 19:53 METAR KHFD 180053Z 00000KT 10SM CLR M02/M12 A3029 RMK AO2 SLP258 T10171117 =
2017-12-17 18:53 METAR KHFD 172353Z 00000KT 10SM CLR M03/M09 A3028 RMK AO2 SLP252 T10281089 11006
                 21033 52007 =
2017-12-17 17:53 METAR KHFD 172253Z 00000KT 10SM CLR M03/M09 A3027 RMK AO2 SLP251 T10281094 =
2017-12-17 16:53 METAR KHFD 172153Z 00000KT 10SM SCT090 M02/M11 A3026 RMK AO2 SLP246 T10221106 =
2017-12-17 15:53 METAR KHFD 172053Z 00000KT 10SM CLR M01/M11 A3026 RMK AO2 SLP245 T10111111 56004
                 =
2017-12-17 14:53 METAR KHFD 171953Z 00000KT 10SM CLR M01/M12 A3026 RMK AO2 SLP245 T10111117 =
2017-12-17 13:53 METAR KHFD 171853Z 00000KT 10SM FEW220 M01/M12 A3025 RMK AO2 SLP242 T10111117 =
2017-12-17 12:53 METAR KHFD 171753Z 04004KT 10SM FEW100 M02/M11 A3027 RMK AO2 SLP249 T10171111
                 11017 21100 56019 =
2017-12-17 11:53 METAR KHFD 171653Z 06005KT 10SM CLR M03/M11 A3028 RMK AO2 SLP253 T10281106 =
2017-12-17 10:53 METAR KHFD 171553Z 03004KT 10SM CLR M03/M11 A3031 RMK AO2 SLP263 T10281111 =
2017-12-17 09:53 METAR KHFD 171453Z 00000KT 10SM FEW100 M04/M12 A3032 RMK AO2 SLP268 T10391117
                 51012 =
2017-12-17 08:53 METAR KHFD 171353Z 02004KT 10SM CLR M06/M12 A3031 RMK AO2 SLP263 T10561117 =
2017-12-17 07:53 METAR KHFD 171253Z 00000KT 10SM CLR M08/M11 A3030 RMK AO2 SLP261 T10831106 =
2017-12-17 06:53 METAR KHFD 171153Z 07004KT 10SM CLR M09/M12 A3029 RMK AO2 SLP256 60000 T10891117
                 11033 21094 51010 =
2017-12-17 05:53 METAR KHFD 171053Z 36005KT 10SM CLR M05/M13 A3028 RMK AO2 SNE42 SLP253 P0000
                 T10501128 =
2017-12-17 04:53 METAR KHFD 170953Z AUTO 28005KT 9SM -SN CLR M06/M11 A3029 RMK AO2 SLP258 P0000
                 T10611111 =
2017-12-17 03:53 METAR KHFD 170853Z AUTO 25005KT 9SM -SN CLR M06/M11 A3026 RMK AO2 SNB36 SLP247
                 P0000 60000 T10561106 51015 =
2017-12-17 02:53 METAR KHFD 170753Z AUTO 31004KT 10SM CLR M04/M11 A3025 RMK AO2 SLP243 T10391106
                 =
2017-12-17 01:53 METAR KHFD 170653Z AUTO 34008KT 10SM CLR M03/M11 A3024 RMK AO2 SLP238 T10331111
                 =
2017-12-17 00:53 METAR KHFD 170553Z AUTO 32004KT 10SM CLR M03/M11 A3022 RMK AO2 SLP232 60000
                 T10331111 11011 21033 51007 =
2017-12-16 23:53 METAR KHFD 170453Z 32003KT 10SM CLR M03/M12 A3021 RMK AO2 SLP231 T10331117
                 400171106 =
2017-12-16 22:53 METAR KHFD 170353Z 35006KT 10SM CLR M03/M11 A3021 RMK AO2 SLP229 T10281111 =

Support USWX by starting your Amazon purchase here.